createdAt,value
2019-01-20T00:01:00.671Z,101461.41
2019-01-20T00:06:10.020Z,101455.59
2019-01-20T00:11:22.024Z,101456.76
2019-01-20T00:16:32.247Z,101463.57
2019-01-20T00:21:41.993Z,101464.43
2019-01-20T00:26:53.156Z,101472.52
2019-01-20T00:32:03.822Z,101462.83
2019-01-20T00:37:15.461Z,101470.63
2019-01-20T00:42:25.131Z,101460.53
2019-01-20T00:47:38.116Z,101455.00
2019-01-20T00:52:52.016Z,101444.56
2019-01-20T00:58:06.788Z,101447.98
2019-01-20T01:03:16.987Z,101444.52
2019-01-20T01:08:25.875Z,101447.25
2019-01-20T01:13:39.293Z,101447.64
2019-01-20T01:18:50.567Z,101449.14
2019-01-20T01:23:59.478Z,101451.58
2019-01-20T01:29:27.277Z,101451.24
2019-01-20T01:34:36.168Z,101446.18
2019-01-20T01:39:43.890Z,101451.23
2019-01-20T01:44:54.615Z,101453.72
2019-01-20T01:50:05.434Z,101456.20
2019-01-20T01:55:17.519Z,101453.45
2019-01-20T02:00:27.991Z,101464.00
2019-01-20T02:05:34.551Z,101462.97
2019-01-20T02:10:43.444Z,101466.61
2019-01-20T02:15:55.044Z,101463.27
2019-01-20T02:21:01.641Z,101466.42
2019-01-20T02:26:12.418Z,101461.75
2019-01-20T02:31:20.552Z,101462.75
2019-01-20T02:36:30.307Z,101460.94
2019-01-20T02:41:39.444Z,101465.13
2019-01-20T02:46:48.748Z,101466.73
2019-01-20T02:51:59.474Z,101466.73
2019-01-20T02:57:08.290Z,101467.20
2019-01-20T03:02:30.671Z,101464.17
2019-01-20T03:07:47.334Z,101456.89
2019-01-20T03:13:03.716Z,101462.56
2019-01-20T03:18:10.510Z,101464.09
2019-01-20T03:23:17.540Z,101461.94
2019-01-20T03:28:29.478Z,101466.56
2019-01-20T03:33:38.056Z,101463.66
2019-01-20T03:38:47.813Z,101460.52
2019-01-20T03:43:57.489Z,101459.38
2019-01-20T03:49:03.219Z,101459.63
2019-01-20T03:54:11.461Z,101463.91
2019-01-20T03:59:23.322Z,101465.95
2019-01-20T04:04:32.644Z,101459.67
2019-01-20T04:09:43.302Z,101462.38
2019-01-20T04:14:54.022Z,101478.45
2019-01-20T04:20:23.235Z,101474.13
2019-01-20T04:25:32.230Z,101481.25
2019-01-20T04:30:40.228Z,101482.49
2019-01-20T04:35:49.992Z,101480.34
2019-01-20T04:41:00.762Z,101479.87
2019-01-20T04:46:11.843Z,101488.56
2019-01-20T04:51:20.902Z,101481.23
2019-01-20T04:56:29.766Z,101489.45
2019-01-20T05:01:39.465Z,101487.70
2019-01-20T05:06:52.809Z,101496.47
2019-01-20T05:12:03.534Z,101498.24
2019-01-20T05:17:15.973Z,101498.19
2019-01-20T05:22:29.390Z,101503.58
2019-01-20T05:28:51.490Z,101498.83
2019-01-20T05:34:01.286Z,101506.80
2019-01-20T05:39:10.511Z,101498.83
2019-01-20T05:44:19.942Z,101497.81
2019-01-20T05:49:29.727Z,101505.25
2019-01-20T05:54:37.231Z,101504.44
2019-01-20T05:59:48.940Z,101502.03
2019-01-20T06:05:00.147Z,101510.47
2019-01-20T06:10:12.902Z,101511.44
2019-01-20T06:15:25.487Z,101519.14
2019-01-20T06:20:38.854Z,101524.52
2019-01-20T06:25:48.590Z,101528.45
2019-01-20T06:30:58.075Z,101535.20
2019-01-20T06:36:05.955Z,101534.15
2019-01-20T06:41:17.442Z,101531.89
2019-01-20T06:46:28.108Z,101531.05
2019-01-20T06:51:37.927Z,101537.39
2019-01-20T06:56:47.305Z,101544.08
2019-01-20T07:01:58.841Z,101546.69
2019-01-20T07:07:07.268Z,101551.50
2019-01-20T07:12:17.250Z,101562.26
2019-01-20T07:17:25.924Z,101575.27
2019-01-20T07:22:36.100Z,101581.31
2019-01-20T07:27:46.787Z,101596.22
2019-01-20T07:32:55.879Z,101593.84
2019-01-20T07:38:04.375Z,101602.27
2019-01-20T07:43:17.007Z,101608.55
2019-01-20T07:48:23.043Z,101615.43
2019-01-20T07:53:33.768Z,101630.99
2019-01-20T07:58:42.748Z,101628.63
2019-01-20T08:03:56.425Z,101636.45
2019-01-20T08:09:03.463Z,101632.91
2019-01-20T08:14:13.763Z,101641.56
2019-01-20T08:19:23.149Z,101651.16
2019-01-20T08:24:34.757Z,101659.64
2019-01-20T08:29:43.619Z,101664.23
2019-01-20T08:34:53.445Z,101674.95
2019-01-20T08:40:00.981Z,101678.86
2019-01-20T08:45:14.439Z,101678.76
2019-01-20T08:50:26.895Z,101683.43
2019-01-20T08:55:34.232Z,101684.69
2019-01-20T09:00:49.351Z,101696.45
2019-01-20T09:05:59.126Z,101699.14
2019-01-20T09:11:08.842Z,101690.07
2019-01-20T09:16:22.701Z,101702.48
2019-01-20T09:21:29.846Z,101704.35
2019-01-20T09:26:40.046Z,101710.27
2019-01-20T09:31:49.868Z,101712.90
2019-01-20T09:36:59.300Z,101715.73
2019-01-20T09:42:09.990Z,101724.40
2019-01-20T09:47:19.319Z,101724.06
2019-01-20T09:52:28.128Z,101723.73
2019-01-20T09:57:37.923Z,101731.74
2019-01-20T10:02:52.488Z,101732.48
2019-01-20T10:08:02.896Z,101729.94
2019-01-20T10:13:12.675Z,101733.81
2019-01-20T10:18:29.740Z,101737.80
2019-01-20T10:23:40.805Z,101747.23
2019-01-20T10:28:49.138Z,101738.96
2019-01-20T10:34:02.520Z,101735.10
2019-01-20T10:39:12.206Z,102164.80
2019-01-20T10:44:26.272Z,101752.98
2019-01-20T10:49:34.751Z,101754.94
2019-01-20T10:54:44.845Z,101761.75
2019-01-20T10:59:57.417Z,101757.22
2019-01-20T11:05:05.402Z,101755.73
2019-01-20T11:10:13.153Z,101753.77
2019-01-20T11:15:27.405Z,101747.02
2019-01-20T11:20:34.994Z,101749.03
2019-01-20T11:25:50.372Z,101753.83
2019-01-20T11:30:59.666Z,101754.86
2019-01-20T11:36:08.546Z,101765.00
2019-01-20T11:41:28.463Z,101775.06
2019-01-20T11:46:39.111Z,101779.04
2019-01-20T11:51:51.103Z,101779.64
2019-01-20T11:57:02.675Z,101775.99
2019-01-20T12:02:10.567Z,101766.55
2019-01-20T12:07:21.267Z,101768.00
2019-01-20T12:12:32.380Z,101772.22
2019-01-20T12:17:40.329Z,101764.88
2019-01-20T12:22:52.322Z,101762.16
2019-01-20T12:28:02.569Z,101763.04
2019-01-20T12:33:15.183Z,101761.17
2019-01-20T12:38:25.894Z,101756.17
2019-01-20T12:43:36.554Z,101753.61
2019-01-20T12:48:43.305Z,101746.86
2019-01-20T12:53:50.534Z,101744.25
2019-01-20T12:59:02.751Z,101750.05
2019-01-20T13:04:13.896Z,101755.82
2019-01-20T13:09:22.509Z,101753.89
2019-01-20T13:14:39.271Z,101760.67
2019-01-20T13:19:47.296Z,101752.13
2019-01-20T13:24:57.222Z,101750.30
2019-01-20T13:30:09.939Z,101752.31
2019-01-20T13:35:20.613Z,101749.72
2019-01-20T13:40:39.223Z,101744.95
2019-01-20T13:45:48.133Z,101748.02
2019-01-20T13:51:00.741Z,101741.38
2019-01-20T13:56:10.885Z,101749.46
2019-01-20T14:01:24.066Z,101760.20
2019-01-20T14:06:33.587Z,101766.69
2019-01-20T14:11:43.344Z,101761.50
2019-01-20T14:16:53.222Z,101774.27
2019-01-20T14:22:00.935Z,101765.63
2019-01-20T14:27:09.254Z,101778.66
2019-01-20T14:32:22.787Z,101792.36
2019-01-20T14:37:31.634Z,101800.41
2019-01-20T14:42:39.711Z,101804.61
2019-01-20T14:47:46.224Z,101814.19
2019-01-20T14:52:53.922Z,101819.77
2019-01-20T14:58:07.448Z,101814.44
2019-01-20T15:03:18.894Z,101819.16
2019-01-20T15:08:31.490Z,101823.45
2019-01-20T15:13:44.945Z,101838.53
2019-01-20T15:18:52.875Z,101834.70
2019-01-20T15:24:02.242Z,101834.70
2019-01-20T15:29:12.073Z,101844.53
2019-01-20T15:34:19.457Z,101852.48
2019-01-20T15:39:27.588Z,101859.56
2019-01-20T15:44:36.725Z,101856.09
2019-01-20T15:49:44.922Z,101854.31
2019-01-20T15:54:53.015Z,101862.31
2019-01-20T16:00:04.963Z,101862.30
2019-01-20T16:05:14.269Z,101862.30
2019-01-20T16:10:22.255Z,101856.94
2019-01-20T16:15:36.189Z,101863.39
2019-01-20T16:20:44.149Z,101880.95
2019-01-20T16:25:53.862Z,101882.73
2019-01-20T16:31:07.658Z,101887.03
2019-01-20T16:36:17.659Z,101884.03
2019-01-20T16:41:27.112Z,101897.42
2019-01-20T16:46:39.622Z,101907.44
2019-01-20T16:51:54.962Z,101909.19
2019-01-20T16:57:06.562Z,101906.61
2019-01-20T17:02:15.881Z,101921.30
2019-01-20T17:07:26.799Z,101927.36
2019-01-20T17:12:36.538Z,101933.39
2019-01-20T17:17:47.238Z,101933.39
2019-01-20T17:23:02.754Z,101936.80
2019-01-20T17:28:11.464Z,101937.66
2019-01-20T17:33:23.204Z,101951.05
2019-01-20T17:38:30.236Z,101954.89
2019-01-20T17:43:38.373Z,101964.36
2019-01-20T17:48:48.181Z,101961.77
2019-01-20T17:53:56.808Z,101962.16
2019-01-20T17:59:04.986Z,101969.48
2019-01-20T18:04:17.713Z,101966.80
2019-01-20T18:09:45.962Z,101979.25
2019-01-20T18:14:54.840Z,101987.34
2019-01-20T18:20:07.301Z,101993.66
2019-01-20T18:25:17.801Z,102000.91
2019-01-20T18:30:27.903Z,102003.34
2019-01-20T18:35:42.418Z,102010.14
2019-01-20T18:40:50.982Z,102020.32
2019-01-20T18:46:01.874Z,102023.06
2019-01-20T18:51:11.983Z,102027.78
2019-01-20T18:56:22.674Z,102030.69
2019-01-20T19:01:31.080Z,102044.31
2019-01-20T19:06:40.438Z,102050.23
2019-01-20T19:11:49.813Z,102063.90
2019-01-20T19:16:55.946Z,102064.37
2019-01-20T19:22:07.721Z,102069.66
2019-01-20T19:27:18.606Z,102068.73
2019-01-20T19:32:30.406Z,102071.75
2019-01-20T19:37:40.428Z,102075.69
2019-01-20T19:42:49.029Z,102085.95
2019-01-20T19:48:01.040Z,102095.52
2019-01-20T19:53:14.574Z,102096.89
2019-01-20T19:58:27.279Z,102099.83
2019-01-20T20:03:36.964Z,102099.14
2019-01-20T20:08:46.796Z,102101.13
2019-01-20T20:13:59.781Z,102104.91
2019-01-20T20:19:10.638Z,102120.06
2019-01-20T20:24:25.251Z,102122.64
2019-01-20T20:29:34.632Z,102124.25
2019-01-20T20:34:48.137Z,102137.39
2019-01-20T20:39:58.174Z,102124.02
2019-01-20T20:45:08.424Z,102124.08
2019-01-20T20:50:20.834Z,102135.05
2019-01-20T20:55:28.134Z,102142.64
2019-01-20T21:00:43.790Z,102151.14
2019-01-20T21:05:53.508Z,102159.30
2019-01-20T21:11:01.641Z,102157.36
2019-01-20T21:16:11.431Z,102165.56
2019-01-20T21:21:21.225Z,102169.00
2019-01-20T21:26:30.982Z,102178.23
2019-01-20T21:31:42.571Z,102172.45
2019-01-20T21:36:50.960Z,102179.70
2019-01-20T21:41:59.904Z,102179.70
2019-01-20T21:47:12.103Z,102177.28
2019-01-20T21:52:22.959Z,102168.05
2019-01-20T21:57:32.008Z,102172.60
2019-01-20T22:02:42.172Z,102186.06
2019-01-20T22:07:50.591Z,102189.73
2019-01-20T22:13:00.667Z,102197.71
2019-01-20T22:18:11.559Z,102204.77
2019-01-20T22:23:19.285Z,102207.91
2019-01-20T22:28:29.592Z,102210.11
2019-01-20T22:33:39.305Z,102213.72
2019-01-20T22:38:51.013Z,102208.64
2019-01-20T22:44:01.768Z,102211.56
2019-01-20T22:49:11.114Z,102215.38
2019-01-20T22:54:23.595Z,102216.41
2019-01-20T22:59:32.455Z,102215.47
2019-01-20T23:04:41.733Z,102223.81
2019-01-20T23:09:52.397Z,102228.80
2019-01-20T23:15:05.029Z,102233.41
2019-01-20T23:20:14.031Z,102234.84
2019-01-20T23:25:21.289Z,102231.06
2019-01-20T23:30:28.849Z,102242.98
2019-01-20T23:35:39.461Z,102243.35
2019-01-20T23:40:49.424Z,102242.28
2019-01-20T23:45:59.184Z,102240.13
2019-01-20T23:51:08.296Z,102235.44
2019-01-20T23:56:19.877Z,102236.46
